Escatawpa, Mississippi
Current Conditions -  °F | °C
As of 7:53 PM on Wednesday 26 Nov 2014 (Local Time) from KPQL Reporting Station
Clear Clear  
Wind Chill: 57°   Ceiling: Unl
Heat Index: 57°   Visibility: 10mi
Dew Point: 44°   Wind: 6mph
Humidity: 62%   Direction: 230°SW
Pressure: 30.2"   Gusts: NA
Location:  30.44°N, 88.55°W
Report Text: KPQL 270153Z 23005KT 10SM CLR 14/07 A3020 RMK AO2 SLP228 T01390067
Loading
Personal Weather Stations






























Interactive Weather Map New forecast layout! Learn more

10-Day Weather Forecast

Advertisements
Track Severe Weather on mobile